Terminal Aerodrome Forecast
Issued by NWS Cleveland, OH

Home | Current Version | Previous Version | Text Only | Print | Product List | Glossary Off
Versions: 1 2 3 4 5 6 7 8 9 10 11 12 13 14 15 16 17 18 19 20 21 22 23 24 25 26

791
FTUS41 KCLE 172351 CCA
TAFERI
TAF COR
KERI 172351Z 1800/1824 26010G20KT P6SM -RA OVC004
     FM180600 25010G15KT 4SM -RA BR OVC006
     FM181600 25010KT 4SM -DZ BR OVC006
     FM181800 25010KT 6SM BR OVC006=

USA.gov is the U.S. government's official web portal to all federal, state and local government web resources and services.